Decoded Metar for OIKB (BANDAR ABBAS in IRAN) (IATA:BND) | Meteo·Mobile Aviation Weather
aviador You're here:

OIKB Decoded Metar

BANDAR ABBAS in IRAN
Report Time2019-02-16 17:30:00
UTC Time2019-02-16 17:55:52
Flight Rules mvfr MVFR
Wind250° at 04 kt
W.Decomp.*RWY 21: 3.1 kt HW 2.5 kt RCW
W.Rank250° ranks 28
Current wind is below 250° avg. (7.1)
Visibility7000 m
Phenomena:N/A
Clouds:Few CB 025 Hf
Scattered 030 Hf
Overcast 090 Hf
Expected CloudBase > 800 ft AGL from Temp-Dew spread
Ceiling9,000 ft
Temp19°C (ISA +4)
Dew Point17°C (88% RH)
QNH1016 hPa
Density Alt666 ft
Elevation33 ft
Report Wrong Elevation
Raw Report
METAR OIKB 161730Z 25004KT 7000 FEW025CB SCT030 OVC090 19/17 Q1016
A3002=

Extra information for OIKB:More info

Metar Taf Metar & Taf Last 4 Metars F.Rules Stats Wind Profile Meteogram Temp Stats Airport Information Weather charts Add Link Nearby VenuesMetar ALERT Operation Metar Decoded Social comments